sensor_id;sensor_type;location;lat;lon;timestamp;pressure;altitude;pressure_sealevel;temperature;humidity
12182;BME280;6154;51.550;12.138;2023-01-29T00:02:21;101810.25;;;4.66;55.60
12182;BME280;6154;51.550;12.138;2023-01-29T00:04:51;101805.91;;;4.65;55.70
12182;BME280;6154;51.550;12.138;2023-01-29T00:07:24;101790.22;;;4.58;55.80
12182;BME280;6154;51.550;12.138;2023-01-29T00:09:53;101783.25;;;4.56;56.06
12182;BME280;6154;51.550;12.138;2023-01-29T00:12:21;101778.91;;;4.53;56.09
12182;BME280;6154;51.550;12.138;2023-01-29T00:14:49;101783.28;;;4.50;56.13
12182;BME280;6154;51.550;12.138;2023-01-29T00:17:17;101788.59;;;4.45;56.03
12182;BME280;6154;51.550;12.138;2023-01-29T00:19:46;101782.47;;;4.45;55.89
12182;BME280;6154;51.550;12.138;2023-01-29T00:22:15;101784.28;;;4.41;56.09
12182;BME280;6154;51.550;12.138;2023-01-29T00:24:43;101787.75;;;4.40;56.23
12182;BME280;6154;51.550;12.138;2023-01-29T00:27:11;101786.03;;;4.38;55.96
12182;BME280;6154;51.550;12.138;2023-01-29T00:29:40;101777.28;;;4.37;56.21
12182;BME280;6154;51.550;12.138;2023-01-29T00:32:09;101781.69;;;4.35;56.35
12182;BME280;6154;51.550;12.138;2023-01-29T00:34:38;101780.78;;;4.36;56.25
12182;BME280;6154;51.550;12.138;2023-01-29T00:37:06;101774.72;;;4.32;56.26
12182;BME280;6154;51.550;12.138;2023-01-29T00:39:36;101773.84;;;4.32;56.15
12182;BME280;6154;51.550;12.138;2023-01-29T00:42:14;101759.03;;;4.28;56.11
12182;BME280;6154;51.550;12.138;2023-01-29T00:45:00;101768.63;;;4.27;55.96
12182;BME280;6154;51.550;12.138;2023-01-29T00:47:28;101763.41;;;4.24;55.95
12182;BME280;6154;51.550;12.138;2023-01-29T00:50:01;101763.41;;;4.24;56.22
12182;BME280;6154;51.550;12.138;2023-01-29T00:52:29;101759.06;;;4.23;56.04
12182;BME280;6154;51.550;12.138;2023-01-29T00:54:59;101754.72;;;4.22;55.99
12182;BME280;6154;51.550;12.138;2023-01-29T00:57:30;101756.47;;;4.19;56.00
12182;BME280;6154;51.550;12.138;2023-01-29T00:59:58;101750.38;;;4.17;56.18
12182;BME280;6154;51.550;12.138;2023-01-29T01:02:27;101755.63;;;4.15;56.21
12182;BME280;6154;51.550;12.138;2023-01-29T01:05:14;101746.03;;;4.14;56.08
12182;BME280;6154;51.550;12.138;2023-01-29T01:07:45;101747.81;;;4.12;55.98
12182;BME280;6154;51.550;12.138;2023-01-29T01:10:17;101753.03;;;4.11;55.92
12182;BME280;6154;51.550;12.138;2023-01-29T01:12:50;101757.41;;;4.07;56.02
12182;BME280;6154;51.550;12.138;2023-01-29T01:15:21;101749.63;;;4.02;56.29
12182;BME280;6154;51.550;12.138;2023-01-29T01:17:53;101741.78;;;4.01;56.50
12182;BME280;6154;51.550;12.138;2023-01-29T01:20:23;101727.78;;;3.99;56.49
12182;BME280;6154;51.550;12.138;2023-01-29T01:22:53;101719.09;;;3.95;56.98
12182;BME280;6154;51.550;12.138;2023-01-29T01:25:24;101722.59;;;3.94;56.74
12182;BME280;6154;51.550;12.138;2023-01-29T01:27:54;101712.13;;;3.94;56.91
12182;BME280;6154;51.550;12.138;2023-01-29T01:30:23;101719.97;;;3.94;57.09
12182;BME280;6154;51.550;12.138;2023-01-29T01:32:52;101712.13;;;3.96;56.83
12182;BME280;6154;51.550;12.138;2023-01-29T01:35:20;101716.47;;;3.97;56.68
12182;BME280;6154;51.550;12.138;2023-01-29T01:37:48;101718.22;;;3.95;56.73
12182;BME280;6154;51.550;12.138;2023-01-29T01:40:19;101719.13;;;3.94;56.72
12182;BME280;6154;51.550;12.138;2023-01-29T01:42:50;101725.25;;;3.91;56.68
12182;BME280;6154;51.550;12.138;2023-01-29T01:45:21;101727.84;;;3.90;56.50
12182;BME280;6154;51.550;12.138;2023-01-29T01:47:55;101734.84;;;3.91;56.43
12182;BME280;6154;51.550;12.138;2023-01-29T01:50:29;101729.63;;;3.86;56.43
12182;BME280;6154;51.550;12.138;2023-01-29T01:53:02;101734.91;;;3.83;56.54
12182;BME280;6154;51.550;12.138;2023-01-29T01:55:34;101736.66;;;3.83;56.56
12182;BME280;6154;51.550;12.138;2023-01-29T01:58:08;101734.87;;;3.85;56.74
12182;BME280;6154;51.550;12.138;2023-01-29T02:00:39;101734.00;;;3.84;56.83
12182;BME280;6154;51.550;12.138;2023-01-29T02:03:08;101735.75;;;3.85;56.80
12182;BME280;6154;51.550;12.138;2023-01-29T02:05:57;101734.00;;;3.84;56.77
12182;BME280;6154;51.550;12.138;2023-01-29T02:08:50;101722.69;;;3.82;56.92
12182;BME280;6154;51.550;12.138;2023-01-29T02:11:38;101723.53;;;3.84;56.89
12182;BME280;6154;51.550;12.138;2023-01-29T02:14:08;101728.81;;;3.81;56.68
12182;BME280;6154;51.550;12.138;2023-01-29T02:16:37;101713.97;;;3.77;56.98
12182;BME280;6154;51.550;12.138;2023-01-29T02:19:10;101710.50;;;3.77;57.05
12182;BME280;6154;51.550;12.138;2023-01-29T02:22:02;101710.50;;;3.75;57.25
12182;BME280;6154;51.550;12.138;2023-01-29T02:24:48;101720.06;;;3.79;57.09
12182;BME280;6154;51.550;12.138;2023-01-29T02:27:32;101736.69;;;3.69;56.85
12182;BME280;6154;51.550;12.138;2023-01-29T02:30:15;101736.72;;;3.67;56.81
12182;BME280;6154;51.550;12.138;2023-01-29T02:32:49;101735.81;;;3.70;56.95
12182;BME280;6154;51.550;12.138;2023-01-29T02:35:29;101740.22;;;3.71;57.05
12182;BME280;6154;51.550;12.138;2023-01-29T02:38:09;101739.28;;;3.77;57.16
12182;BME280;6154;51.550;12.138;2023-01-29T02:40:43;101739.28;;;3.78;57.26
12182;BME280;6154;51.550;12.138;2023-01-29T02:43:24;101733.12;;;3.81;57.20
12182;BME280;6154;51.550;12.138;2023-01-29T02:46:01;101734.03;;;3.83;57.27
12182;BME280;6154;51.550;12.138;2023-01-29T02:48:39;101729.69;;;3.82;57.54
12182;BME280;6154;51.550;12.138;2023-01-29T02:51:14;101729.63;;;3.88;57.62
12182;BME280;6154;51.550;12.138;2023-01-29T02:53:52;101723.53;;;3.86;57.86
12182;BME280;6154;51.550;12.138;2023-01-29T02:56:28;101720.91;;;3.86;58.07
12182;BME280;6154;51.550;12.138;2023-01-29T02:59:04;101719.13;;;3.92;58.05
12182;BME280;6154;51.550;12.138;2023-01-29T03:01:39;101718.19;;;3.99;58.13
12182;BME280;6154;51.550;12.138;2023-01-29T03:04:15;101712.03;;;4.07;57.92
12182;BME280;6154;51.550;12.138;2023-01-29T03:06:48;101704.19;;;4.05;58.13
12182;BME280;6154;51.550;12.138;2023-01-29T03:09:21;101701.50;;;4.14;57.98
12182;BME280;6154;51.550;12.138;2023-01-29T03:11:56;101686.69;;;4.12;58.01
12182;BME280;6154;51.550;12.138;2023-01-29T03:14:31;101691.97;;;4.04;58.29
12182;BME280;6154;51.550;12.138;2023-01-29T03:17:32;101685.03;;;4.01;58.22
12182;BME280;6154;51.550;12.138;2023-01-29T03:20:08;101693.69;;;4.07;57.97
12182;BME280;6154;51.550;12.138;2023-01-29T03:22:45;101707.78;;;3.93;58.24
12182;BME280;6154;51.550;12.138;2023-01-29T03:25:17;101700.81;;;3.91;58.35
12182;BME280;6154;51.550;12.138;2023-01-29T03:28:05;101699.88;;;3.96;57.98
12182;BME280;6154;51.550;12.138;2023-01-29T03:30:54;101693.81;;;3.94;57.95
12182;BME280;6154;51.550;12.138;2023-01-29T03:33:44;101688.59;;;3.88;57.92
12182;BME280;6154;51.550;12.138;2023-01-29T03:36:17;101686.88;;;3.86;58.05
12182;BME280;6154;51.550;12.138;2023-01-29T03:38:48;101688.63;;;3.85;57.93
12182;BME280;6154;51.550;12.138;2023-01-29T03:41:22;101689.50;;;3.84;57.99
12182;BME280;6154;51.550;12.138;2023-01-29T03:43:57;101688.66;;;3.79;58.07
12182;BME280;6154;51.550;12.138;2023-01-29T03:46:31;101695.69;;;3.74;58.11
12182;BME280;6154;51.550;12.138;2023-01-29T03:49:10;101695.66;;;3.75;57.86
12182;BME280;6154;51.550;12.138;2023-01-29T03:51:45;101700.94;;;3.68;58.34
12182;BME280;6154;51.550;12.138;2023-01-29T03:54:22;101701.81;;;3.68;58.23
12182;BME280;6154;51.550;12.138;2023-01-29T03:56:56;101701.81;;;3.70;58.15
12182;BME280;6154;51.550;12.138;2023-01-29T03:59:34;101699.22;;;3.67;58.08
12182;BME280;6154;51.550;12.138;2023-01-29T04:02:11;101700.09;;;3.66;57.98
12182;BME280;6154;51.550;12.138;2023-01-29T04:04:44;101695.75;;;3.65;58.01
12182;BME280;6154;51.550;12.138;2023-01-29T04:07:16;101691.41;;;3.61;58.14
12182;BME280;6154;51.550;12.138;2023-01-29T04:09:56;101683.56;;;3.61;58.12
12182;BME280;6154;51.550;12.138;2023-01-29T04:12:27;101684.44;;;3.61;58.02
12182;BME280;6154;51.550;12.138;2023-01-29T04:15:00;101681.78;;;3.60;58.16
12182;BME280;6154;51.550;12.138;2023-01-29T04:17:33;101680.94;;;3.58;58.33
12182;BME280;6154;51.550;12.138;2023-01-29T04:20:09;101680.03;;;3.60;58.40
12182;BME280;6154;51.550;12.138;2023-01-29T04:22:39;101685.28;;;3.65;58.15
12182;BME280;6154;51.550;12.138;2023-01-29T04:25:13;101673.03;;;3.67;58.16
12182;BME280;6154;51.550;12.138;2023-01-29T04:27:49;101663.47;;;3.64;58.65
12182;BME280;6154;51.550;12.138;2023-01-29T04:30:23;101662.53;;;3.70;58.69
12182;BME280;6154;51.550;12.138;2023-01-29T04:33:02;101664.22;;;3.79;58.60
12182;BME280;6154;51.550;12.138;2023-01-29T04:35:43;101660.72;;;3.83;58.54
12182;BME280;6154;51.550;12.138;2023-01-29T04:38:22;101654.63;;;3.82;58.86
12182;BME280;6154;51.550;12.138;2023-01-29T04:41:01;101650.13;;;3.96;58.57
12182;BME280;6154;51.550;12.138;2023-01-29T04:43:40;101642.28;;;3.96;58.49
12182;BME280;6154;51.550;12.138;2023-01-29T04:46:14;101629.16;;;3.99;58.58
12182;BME280;6154;51.550;12.138;2023-01-29T04:48:58;101623.91;;;3.99;58.58
12182;BME280;6154;51.550;12.138;2023-01-29T04:51:34;101624.75;;;4.06;58.59
12182;BME280;6154;51.550;12.138;2023-01-29T04:54:15;101624.75;;;4.04;58.47
12182;BME280;6154;51.550;12.138;2023-01-29T04:56:51;101615.09;;;4.13;58.40
12182;BME280;6154;51.550;12.138;2023-01-29T04:59:26;101611.59;;;4.14;58.45
12182;BME280;6154;51.550;12.138;2023-01-29T05:01:58;101599.37;;;4.10;58.70
12182;BME280;6154;51.550;12.138;2023-01-29T05:04:28;101590.56;;;4.20;58.44
12182;BME280;6154;51.550;12.138;2023-01-29T05:07:02;101590.53;;;4.23;58.43
12182;BME280;6154;51.550;12.138;2023-01-29T05:09:32;101594.91;;;4.21;58.55
12182;BME280;6154;51.550;12.138;2023-01-29T05:12:01;101584.41;;;4.25;58.47
12182;BME280;6154;51.550;12.138;2023-01-29T05:14:33;101594.84;;;4.28;58.39
12182;BME280;6154;51.550;12.138;2023-01-29T05:17:04;101595.69;;;4.32;58.44
12182;BME280;6154;51.550;12.138;2023-01-29T05:19:35;101590.47;;;4.29;58.51
12182;BME280;6154;51.550;12.138;2023-01-29T05:22:05;101586.94;;;4.30;58.58
12182;BME280;6154;51.550;12.138;2023-01-29T05:24:36;101585.22;;;4.29;58.67
12182;BME280;6154;51.550;12.138;2023-01-29T05:27:05;101577.34;;;4.33;58.63
12182;BME280;6154;51.550;12.138;2023-01-29T05:29:51;101584.34;;;4.28;58.82
12182;BME280;6154;51.550;12.138;2023-01-29T05:32:21;101572.03;;;4.37;58.70
12182;BME280;6154;51.550;12.138;2023-01-29T05:34:49;101569.41;;;4.38;58.71
12182;BME280;6154;51.550;12.138;2023-01-29T05:37:18;101574.62;;;4.43;58.66
12182;BME280;6154;51.550;12.138;2023-01-29T05:39:47;101575.38;;;4.51;58.52
12182;BME280;6154;51.550;12.138;2023-01-29T05:42:14;101574.50;;;4.53;58.45
12182;BME280;6154;51.550;12.138;2023-01-29T05:44:43;101568.38;;;4.53;58.35
12182;BME280;6154;51.550;12.138;2023-01-29T05:47:11;101577.00;;;4.59;58.37
12182;BME280;6154;51.550;12.138;2023-01-29T05:49:39;101577.84;;;4.65;58.27
12182;BME280;6154;51.550;12.138;2023-01-29T05:52:07;101581.31;;;4.67;58.23
12182;BME280;6154;51.550;12.138;2023-01-29T05:54:37;101570.81;;;4.67;58.28
12182;BME280;6154;51.550;12.138;2023-01-29T05:57:05;101576.94;;;4.67;58.27
12182;BME280;6154;51.550;12.138;2023-01-29T05:59:33;101583.00;;;4.71;58.17
12182;BME280;6154;51.550;12.138;2023-01-29T06:02:01;101583.03;;;4.69;58.38
12182;BME280;6154;51.550;12.138;2023-01-29T06:04:29;101586.50;;;4.73;58.24
12182;BME280;6154;51.550;12.138;2023-01-29T06:06:57;101594.34;;;4.74;58.24
12182;BME280;6154;51.550;12.138;2023-01-29T06:09:26;101591.66;;;4.77;58.24
12182;BME280;6154;51.550;12.138;2023-01-29T06:11:56;101592.56;;;4.75;58.28
12182;BME280;6154;51.550;12.138;2023-01-29T06:14:24;101600.50;;;4.72;58.47
12182;BME280;6154;51.550;12.138;2023-01-29T06:16:52;101598.59;;;4.83;58.19
12182;BME280;6154;51.550;12.138;2023-01-29T06:19:21;101612.50;;;4.88;58.13
12182;BME280;6154;51.550;12.138;2023-01-29T06:21:49;101621.19;;;4.93;58.16
12182;BME280;6154;51.550;12.138;2023-01-29T06:24:16;101632.50;;;4.97;58.02
12182;BME280;6154;51.550;12.138;2023-01-29T06:26:45;101621.19;;;4.95;58.05
12182;BME280;6154;51.550;12.138;2023-01-29T06:29:14;101629.84;;;5.00;57.99
12182;BME280;6154;51.550;12.138;2023-01-29T06:31:42;101636.81;;;5.02;58.03
12182;BME280;6154;51.550;12.138;2023-01-29T06:34:11;101637.66;;;5.04;58.05
12182;BME280;6154;51.550;12.138;2023-01-29T06:36:39;101629.75;;;5.07;58.09
12182;BME280;6154;51.550;12.138;2023-01-29T06:39:08;101630.69;;;5.03;58.29
12182;BME280;6154;51.550;12.138;2023-01-29T06:41:36;101632.41;;;5.04;58.29
12182;BME280;6154;51.550;12.138;2023-01-29T06:44:04;101641.97;;;5.08;58.34
12182;BME280;6154;51.550;12.138;2023-01-29T06:46:33;101640.16;;;5.15;58.22
12182;BME280;6154;51.550;12.138;2023-01-29T06:49:02;101652.34;;;5.17;58.11
12182;BME280;6154;51.550;12.138;2023-01-29T06:51:31;101647.97;;;5.18;58.01
12182;BME280;6154;51.550;12.138;2023-01-29T06:53:59;101654.09;;;5.18;58.02
12182;BME280;6154;51.550;12.138;2023-01-29T06:56:27;101648.88;;;5.17;58.10
12182;BME280;6154;51.550;12.138;2023-01-29T06:58:55;101661.09;;;5.18;58.00
12182;BME280;6154;51.550;12.138;2023-01-29T07:01:23;101661.94;;;5.20;58.15
12182;BME280;6154;51.550;12.138;2023-01-29T07:04:04;101664.47;;;5.28;57.92
12182;BME280;6154;51.550;12.138;2023-01-29T07:06:32;101675.16;;;5.12;58.48
12182;BME280;6154;51.550;12.138;2023-01-29T07:09:00;101673.28;;;5.24;58.33
12182;BME280;6154;51.550;12.138;2023-01-29T07:11:29;101677.69;;;5.22;58.58
12182;BME280;6154;51.550;12.138;2023-01-29T07:13:57;101669.91;;;5.11;58.96
12182;BME280;6154;51.550;12.138;2023-01-29T07:16:25;101675.94;;;5.22;58.66
12182;BME280;6154;51.550;12.138;2023-01-29T07:18:54;101679.38;;;5.24;58.91
12182;BME280;6154;51.550;12.138;2023-01-29T07:21:23;101673.19;;;5.28;58.91
12182;BME280;6154;51.550;12.138;2023-01-29T07:23:51;101681.06;;;5.31;58.95
12182;BME280;6154;51.550;12.138;2023-01-29T07:26:20;101670.63;;;5.25;58.88
12182;BME280;6154;51.550;12.138;2023-01-29T07:28:48;101661.78;;;5.31;59.15
12182;BME280;6154;51.550;12.138;2023-01-29T07:31:16;101654.78;;;5.33;58.93
12182;BME280;6154;51.550;12.138;2023-01-29T07:33:44;101646.81;;;5.39;58.85
12182;BME280;6154;51.550;12.138;2023-01-29T07:36:13;101654.75;;;5.36;59.22
12182;BME280;6154;51.550;12.138;2023-01-29T07:38:42;101641.62;;;5.36;59.21
12182;BME280;6154;51.550;12.138;2023-01-29T07:41:11;101646.78;;;5.42;59.14
12182;BME280;6154;51.550;12.138;2023-01-29T07:43:43;101651.16;;;5.40;59.23
12182;BME280;6154;51.550;12.138;2023-01-29T07:46:11;101645.03;;;5.41;59.53
12182;BME280;6154;51.550;12.138;2023-01-29T07:48:39;101638.19;;;5.29;59.47
12182;BME280;6154;51.550;12.138;2023-01-29T07:51:07;101624.91;;;5.40;59.52
12182;BME280;6154;51.550;12.138;2023-01-29T07:53:35;101624.84;;;5.46;59.62
12182;BME280;6154;51.550;12.138;2023-01-29T07:56:05;101617.88;;;5.43;59.75
12182;BME280;6154;51.550;12.138;2023-01-29T07:58:33;101621.25;;;5.53;59.35
12182;BME280;6154;51.550;12.138;2023-01-29T08:01:04;101608.12;;;5.53;59.40
12182;BME280;6154;51.550;12.138;2023-01-29T08:03:33;101608.12;;;5.53;59.63
12182;BME280;6154;51.550;12.138;2023-01-29T08:06:02;101616.75;;;5.61;59.38
12182;BME280;6154;51.550;12.138;2023-01-29T08:08:30;101607.88;;;5.68;59.37
12182;BME280;6154;51.550;12.138;2023-01-29T08:11:00;101612.19;;;5.74;59.38
12182;BME280;6154;51.550;12.138;2023-01-29T08:13:29;101620.84;;;5.79;59.30
12182;BME280;6154;51.550;12.138;2023-01-29T08:15:59;101617.25;;;5.85;59.15
12182;BME280;6154;51.550;12.138;2023-01-29T08:18:28;101623.34;;;5.87;59.36
12182;BME280;6154;51.550;12.138;2023-01-29T08:20:58;101626.09;;;5.79;59.37
12182;BME280;6154;51.550;12.138;2023-01-29T08:23:27;101629.63;;;5.76;59.29
12182;BME280;6154;51.550;12.138;2023-01-29T08:25:55;101630.37;;;5.85;59.50
12182;BME280;6154;51.550;12.138;2023-01-29T08:28:26;101625.94;;;5.91;59.46
12182;BME280;6154;51.550;12.138;2023-01-29T08:30:55;101625.19;;;5.82;59.39
12182;BME280;6154;51.550;12.138;2023-01-29T08:33:24;101623.41;;;5.84;59.24
12182;BME280;6154;51.550;12.138;2023-01-29T08:36:14;101632.12;;;5.86;59.22
12182;BME280;6154;51.550;12.138;2023-01-29T08:38:43;101636.34;;;5.97;59.48
12182;BME280;6154;51.550;12.138;2023-01-29T08:41:11;101640.78;;;5.94;59.29
12182;BME280;6154;51.550;12.138;2023-01-29T08:43:39;101645.91;;;6.00;59.29
12182;BME280;6154;51.550;12.138;2023-01-29T08:46:08;101640.63;;;6.03;59.32
12182;BME280;6154;51.550;12.138;2023-01-29T08:48:36;101624.91;;;6.00;59.40
12182;BME280;6154;51.550;12.138;2023-01-29T08:51:05;101625.19;;;5.82;59.60
12182;BME280;6154;51.550;12.138;2023-01-29T08:53:33;101620.94;;;5.73;59.93
12182;BME280;6154;51.550;12.138;2023-01-29T08:56:01;101623.13;;;6.00;59.40
12182;BME280;6154;51.550;12.138;2023-01-29T08:58:29;101627.53;;;6.00;59.46
12182;BME280;6154;51.550;12.138;2023-01-29T09:01:04;101622.12;;;6.09;59.22
12182;BME280;6154;51.550;12.138;2023-01-29T09:03:34;101616.66;;;6.20;59.16
12182;BME280;6154;51.550;12.138;2023-01-29T09:06:02;101608.78;;;6.20;59.10
12182;BME280;6154;51.550;12.138;2023-01-29T09:08:31;101615.00;;;6.16;59.15
12182;BME280;6154;51.550;12.138;2023-01-29T09:10:58;101602.91;;;6.05;59.18
12182;BME280;6154;51.550;12.138;2023-01-29T09:13:27;101605.34;;;6.16;59.07
12182;BME280;6154;51.550;12.138;2023-01-29T09:15:58;101589.53;;;6.19;59.21
12182;BME280;6154;51.550;12.138;2023-01-29T09:18:26;101585.13;;;6.21;59.29
12182;BME280;6154;51.550;12.138;2023-01-29T09:20:56;101584.88;;;6.35;59.10
12182;BME280;6154;51.550;12.138;2023-01-29T09:23:24;101584.16;;;6.25;58.96
12182;BME280;6154;51.550;12.138;2023-01-29T09:25:53;101577.97;;;6.28;59.21
12182;BME280;6154;51.550;12.138;2023-01-29T09:28:21;101570.72;;;6.41;58.88
12182;BME280;6154;51.550;12.138;2023-01-29T09:30:49;101580.38;;;6.42;58.90
12182;BME280;6154;51.550;12.138;2023-01-29T09:33:17;101589.13;;;6.41;58.94
12182;BME280;6154;51.550;12.138;2023-01-29T09:35:49;101592.47;;;6.49;58.69
12182;BME280;6154;51.550;12.138;2023-01-29T09:38:19;101596.69;;;6.57;58.61
12182;BME280;6154;51.550;12.138;2023-01-29T09:40:54;101584.31;;;6.64;58.49
12182;BME280;6154;51.550;12.138;2023-01-29T09:43:30;101575.44;;;6.68;58.42
12182;BME280;6154;51.550;12.138;2023-01-29T09:46:05;101578.94;;;6.69;58.13
12182;BME280;6154;51.550;12.138;2023-01-29T09:48:35;101574.25;;;6.84;58.23
12182;BME280;6154;51.550;12.138;2023-01-29T09:51:09;101574.16;;;6.87;58.02
12182;BME280;6154;51.550;12.138;2023-01-29T09:53:45;101578.47;;;6.90;58.13
12182;BME280;6154;51.550;12.138;2023-01-29T09:56:19;101571.34;;;6.97;58.08
12182;BME280;6154;51.550;12.138;2023-01-29T09:58:49;101569.44;;;7.03;58.02
12182;BME280;6154;51.550;12.138;2023-01-29T10:01:23;101569.37;;;7.06;57.94
12182;BME280;6154;51.550;12.138;2023-01-29T10:04:06;101563.31;;;7.03;57.69
12182;BME280;6154;51.550;12.138;2023-01-29T10:06:58;101571.69;;;7.20;57.71
12182;BME280;6154;51.550;12.138;2023-01-29T10:09:54;101554.16;;;7.19;57.41
12182;BME280;6154;51.550;12.138;2023-01-29T10:12:38;101551.28;;;7.30;57.26
12182;BME280;6154;51.550;12.138;2023-01-29T10:15:24;101553.00;;;7.31;57.26
12182;BME280;6154;51.550;12.138;2023-01-29T10:18:11;101544.16;;;7.35;57.14
12182;BME280;6154;51.550;12.138;2023-01-29T10:20:53;101545.84;;;7.37;56.97
12182;BME280;6154;51.550;12.138;2023-01-29T10:23:32;101543.00;;;7.46;57.24
12182;BME280;6154;51.550;12.138;2023-01-29T10:26:07;101529.13;;;7.38;57.34
12182;BME280;6154;51.550;12.138;2023-01-29T10:28:41;101527.97;;;7.50;57.24
12182;BME280;6154;51.550;12.138;2023-01-29T10:31:16;101529.03;;;7.43;56.90
12182;BME280;6154;51.550;12.138;2023-01-29T10:33:49;101525.31;;;7.52;57.43
12182;BME280;6154;51.550;12.138;2023-01-29T10:36:37;101522.66;;;7.53;56.83
12182;BME280;6154;51.550;12.138;2023-01-29T10:39:14;101523.50;;;7.54;57.06
12182;BME280;6154;51.550;12.138;2023-01-29T10:41:55;101522.97;;;7.75;57.08
12182;BME280;6154;51.550;12.138;2023-01-29T10:44:39;101520.47;;;7.69;56.81
12182;BME280;6154;51.550;12.138;2023-01-29T10:47:24;101532.97;;;7.61;56.80
12182;BME280;6154;51.550;12.138;2023-01-29T10:50:16;101528.47;;;7.66;56.99
12182;BME280;6154;51.550;12.138;2023-01-29T10:53:00;101523.28;;;7.63;56.64
12182;BME280;6154;51.550;12.138;2023-01-29T10:55:45;101520.47;;;7.69;56.57
12182;BME280;6154;51.550;12.138;2023-01-29T10:58:28;101508.44;;;7.59;56.88
12182;BME280;6154;51.550;12.138;2023-01-29T11:00:57;101497.69;;;7.68;56.75
12182;BME280;6154;51.550;12.138;2023-01-29T11:03:27;101485.75;;;7.87;57.19
12182;BME280;6154;51.550;12.138;2023-01-29T11:06:03;101475.13;;;7.90;56.87
12182;BME280;6154;51.550;12.138;2023-01-29T11:08:37;101478.66;;;7.89;56.49
12182;BME280;6154;51.550;12.138;2023-01-29T11:11:12;101479.41;;;7.94;56.49
12182;BME280;6154;51.550;12.138;2023-01-29T11:13:47;101471.16;;;8.06;56.89
12182;BME280;6154;51.550;12.138;2023-01-29T11:16:17;101462.78;;;7.92;56.16
12182;BME280;6154;51.550;12.138;2023-01-29T11:18:56;101461.66;;;8.01;56.50
12182;BME280;6154;51.550;12.138;2023-01-29T11:21:26;101445.19;;;8.24;56.60
12182;BME280;6154;51.550;12.138;2023-01-29T11:24:07;101450.75;;;8.15;56.02
12182;BME280;6154;51.550;12.138;2023-01-29T11:26:39;101455.47;;;8.34;55.84
12182;BME280;6154;51.550;12.138;2023-01-29T11:29:33;101456.41;;;8.61;56.47
12182;BME280;6154;51.550;12.138;2023-01-29T11:32:05;101454.34;;;8.71;55.55
12182;BME280;6154;51.550;12.138;2023-01-29T11:34:55;101452.50;;;8.75;56.35
12182;BME280;6154;51.550;12.138;2023-01-29T11:37:31;101440.50;;;8.35;54.67
12182;BME280;6154;51.550;12.138;2023-01-29T11:39:59;101432.31;;;8.74;55.87
12182;BME280;6154;51.550;12.138;2023-01-29T11:42:30;101429.78;;;8.69;56.46
12182;BME280;6154;51.550;12.138;2023-01-29T11:45:01;101424.28;;;8.77;55.42
12182;BME280;6154;51.550;12.138;2023-01-29T11:47:29;101414.41;;;8.83;55.92
12182;BME280;6154;51.550;12.138;2023-01-29T11:50:00;101417.50;;;8.96;56.15
12182;BME280;6154;51.550;12.138;2023-01-29T11:52:34;101412.94;;;9.01;55.99
12182;BME280;6154;51.550;12.138;2023-01-29T11:55:06;101413.53;;;8.83;55.63
12182;BME280;6154;51.550;12.138;2023-01-29T11:57:42;101410.00;;;8.84;55.59
12182;BME280;6154;51.550;12.138;2023-01-29T12:00:20;101406.03;;;8.97;55.99
12182;BME280;6154;51.550;12.138;2023-01-29T12:02:53;101394.56;;;8.98;55.32
12182;BME280;6154;51.550;12.138;2023-01-29T12:05:24;101395.63;;;8.92;54.57
12182;BME280;6154;51.550;12.138;2023-01-29T12:07:55;101394.41;;;9.03;55.12
12182;BME280;6154;51.550;12.138;2023-01-29T12:10:30;101389.91;;;9.06;55.68
12182;BME280;6154;51.550;12.138;2023-01-29T12:13:17;101382.50;;;8.89;55.42
12182;BME280;6154;51.550;12.138;2023-01-29T12:16:05;101381.59;;;8.90;54.66
12182;BME280;6154;51.550;12.138;2023-01-29T12:18:38;101381.41;;;8.97;54.43
12182;BME280;6154;51.550;12.138;2023-01-29T12:21:13;101375.09;;;9.02;55.32
12182;BME280;6154;51.550;12.138;2023-01-29T12:23:50;101372.63;;;8.96;55.39
12182;BME280;6154;51.550;12.138;2023-01-29T12:26:24;101354.03;;;8.99;54.70
12182;BME280;6154;51.550;12.138;2023-01-29T12:29:13;101365.63;;;8.95;55.68
12182;BME280;6154;51.550;12.138;2023-01-29T12:31:49;101356.63;;;8.74;54.44
12182;BME280;6154;51.550;12.138;2023-01-29T12:34:27;101360.53;;;8.89;54.95
12182;BME280;6154;51.550;12.138;2023-01-29T12:37:01;101363.00;;;8.95;55.33
12182;BME280;6154;51.550;12.138;2023-01-29T12:39:31;101352.31;;;8.98;54.74
12182;BME280;6154;51.550;12.138;2023-01-29T12:42:02;101357.47;;;9.01;54.88
12182;BME280;6154;51.550;12.138;2023-01-29T12:44:38;101351.41;;;8.73;55.22
12182;BME280;6154;51.550;12.138;2023-01-29T12:47:14;101339.66;;;8.83;55.54
12182;BME280;6154;51.550;12.138;2023-01-29T12:49:51;101336.19;;;8.54;54.62
12182;BME280;6154;51.550;12.138;2023-01-29T12:52:34;101333.88;;;8.70;55.10
12182;BME280;6154;51.550;12.138;2023-01-29T12:55:09;101342.31;;;8.81;54.92
12182;BME280;6154;51.550;12.138;2023-01-29T12:57:41;101331.72;;;8.56;55.46
12182;BME280;6154;51.550;12.138;2023-01-29T13:00:17;101329.69;;;8.64;55.58
12182;BME280;6154;51.550;12.138;2023-01-29T13:02:54;101326.88;;;8.69;55.60
12182;BME280;6154;51.550;12.138;2023-01-29T13:05:25;101311.28;;;8.63;55.67
12182;BME280;6154;51.550;12.138;2023-01-29T13:08:00;101298.37;;;8.54;55.78
12182;BME280;6154;51.550;12.138;2023-01-29T13:10:32;101297.66;;;8.49;55.48
12182;BME280;6154;51.550;12.138;2023-01-29T13:13:05;101296.50;;;8.57;55.66
12182;BME280;6154;51.550;12.138;2023-01-29T13:15:41;101290.53;;;8.51;55.48
12182;BME280;6154;51.550;12.138;2023-01-29T13:18:31;101281.03;;;8.47;55.52
12182;BME280;6154;51.550;12.138;2023-01-29T13:21:03;101284.00;;;8.36;54.60
12182;BME280;6154;51.550;12.138;2023-01-29T13:23:34;101281.78;;;8.50;55.73
12182;BME280;6154;51.550;12.138;2023-01-29T13:26:05;101280.72;;;8.56;55.34
12182;BME280;6154;51.550;12.138;2023-01-29T13:28:33;101291.09;;;8.62;55.47
12182;BME280;6154;51.550;12.138;2023-01-29T13:31:22;101285.25;;;8.52;55.53
12182;BME280;6154;51.550;12.138;2023-01-29T13:34:06;101275.00;;;8.43;54.76